Time;durP1;ratioP1;P1;durP2;ratioP2;P2;SDS_P1;SDS_P2;PMS_P1;PMS_P2;Temp;Humidity;BMP_temperature;BMP_pressure;BME280_temperature;BME280_humidity;BME280_pressure;Samples;Min_cycle;Max_cycle;Signal;HPM_P1;HPM_P2
2022/09/29 00:00:38;;;;;;;7.22;5.17;;;;;;;10.80;76.21;95699.11;1712180;83;27078;-82
2022/09/29 00:03:06;;;;;;;8.03;5.62;;;;;;;10.80;76.27;95710.73;1699382;84;25983;-82
2022/09/29 00:05:33;;;;;;;13.03;5.55;;;;;;;10.81;76.41;95712.89;1712201;83;27356;-82
2022/09/29 00:08:00;;;;;;;10.38;5.28;;;;;;;10.79;76.54;95708.27;1711850;83;26213;-82
2022/09/29 00:10:26;;;;;;;7.95;5.30;;;;;;;10.78;76.60;95703.95;1712168;83;25295;-82
2022/09/29 00:12:53;;;;;;;7.90;5.53;;;;;;;10.77;76.79;95697.73;1712503;83;25961;-82
2022/09/29 00:15:19;;;;;;;10.60;5.83;;;;;;;10.74;76.91;95706.36;1734447;81;26091;-81
2022/09/29 00:17:46;;;;;;;9.33;5.20;;;;;;;10.71;76.98;95698.76;1730781;82;27354;-81
2022/09/29 00:20:12;;;;;;;8.85;5.78;;;;;;;10.70;77.05;95704.41;1730821;82;25813;-82
2022/09/29 00:22:39;;;;;;;9.53;5.65;;;;;;;10.68;77.12;95713.28;1730917;82;25745;-82
2022/09/29 00:25:06;;;;;;;9.48;5.40;;;;;;;10.71;77.22;95708.73;1730938;82;26513;-83
2022/09/29 00:27:33;;;;;;;7.42;5.47;;;;;;;10.72;77.28;95711.72;1730588;82;25758;-83
2022/09/29 00:30:00;;;;;;;8.95;5.83;;;;;;;10.75;77.30;95710.66;1730815;82;27616;-83
2022/09/29 00:32:26;;;;;;;10.05;5.62;;;;;;;10.74;77.32;95706.89;1730726;82;25883;-82
2022/09/29 00:34:53;;;;;;;8.70;5.67;;;;;;;10.76;77.37;95708.77;1730729;82;25800;-82
2022/09/29 00:37:19;;;;;;;9.25;5.90;;;;;;;10.76;77.41;95708.77;1730771;82;25681;-83
2022/09/29 00:39:46;;;;;;;10.13;5.60;;;;;;;10.76;77.50;95711.47;1730758;82;25832;-83
2022/09/29 00:42:16;;;;;;;7.85;5.25;;;;;;;10.75;77.55;95712.54;1730815;82;28186;-83
2022/09/29 00:45:01;;;;;;;8.43;5.17;;;;;;;10.76;77.63;95717.69;1728435;82;25773;-83
2022/09/29 00:47:29;;;;;;;10.13;5.50;;;;;;;10.76;77.71;95727.66;1730936;82;26344;-82
2022/09/29 00:50:01;;;;;;;5.50;3.98;;;;;;;10.73;77.83;95723.61;1730779;82;25755;-82
2022/09/29 00:52:36;;;;;;;6.80;4.37;;;;;;;10.67;77.79;95726.48;1728871;82;32131;-81
2022/09/29 00:55:10;;;;;;;5.78;4.22;;;;;;;10.67;77.90;95718.39;1730829;82;27377;-81
2022/09/29 00:57:42;;;;;;;4.67;2.72;;;;;;;10.66;77.94;95724.86;1653561;86;25530;-80
2022/09/29 01:00:13;;;;;;;2.62;2.02;;;;;;;10.65;77.85;95723.22;1647866;86;25768;-80
2022/09/29 01:02:45;;;;;;;2.33;1.85;;;;;;;10.63;77.59;95728.87;1623763;88;26473;-80
2022/09/29 01:05:17;;;;;;;3.27;2.00;;;;;;;10.62;77.42;95736.71;1609404;89;25833;-80
2022/09/29 01:07:45;;;;;;;2.83;1.87;;;;;;;10.57;77.29;95735.28;1568104;91;27405;-80
2022/09/29 01:10:15;;;;;;;1.85;1.62;;;;;;;10.55;77.18;95746.05;1568074;91;25795;-79
2022/09/29 01:12:45;;;;;;;2.08;1.60;;;;;;;10.50;77.13;95747.34;1568208;91;26500;-78
2022/09/29 01:15:16;;;;;;;1.80;1.62;;;;;;;10.46;77.08;95752.42;1568005;91;25838;-79
2022/09/29 01:17:43;;;;;;;3.10;1.80;;;;;;;10.41;77.03;95757.73;1544015;92;25810;-79
2022/09/29 01:20:19;;;;;;;2.52;1.85;;;;;;;10.37;77.05;95765.53;1544282;92;27437;-80
2022/09/29 01:23:18;;;;;;;2.00;1.65;;;;;;;10.33;77.06;95767.08;1543997;92;26778;-80
2022/09/29 01:26:26;;;;;;;4.28;1.75;;;;;;;10.32;77.16;95766.80;1544420;92;25622;-82
2022/09/29 01:29:04;;;;;;;2.08;1.80;;;;;;;10.28;77.22;95764.30;1544284;92;25875;-82
2022/09/29 01:31:56;;;;;;;2.12;1.92;;;;;;;10.16;77.39;95766.27;1541562;92;25950;-81
2022/09/29 01:34:35;;;;;;;2.95;2.10;;;;;;;10.10;77.47;95764.58;1556970;89;27349;-81
2022/09/29 01:37:10;;;;;;;3.52;2.08;;;;;;;10.08;77.67;95770.21;1603798;89;25290;-83
2022/09/29 01:40:14;;;;;;;4.65;1.92;;;;;;;10.08;77.80;95780.18;1603571;89;25771;-82
2022/09/29 01:42:55;;;;;;;2.58;2.17;;;;;;;10.05;77.87;95775.27;1603868;89;26725;-82
2022/09/29 01:45:36;;;;;;;2.40;1.77;;;;;;;10.04;77.92;95788.47;1579319;90;25899;-82
2022/09/29 01:48:10;;;;;;;3.87;2.50;;;;;;;10.02;77.97;95794.09;1587515;90;27461;-83
2022/09/29 01:50:44;;;;;;;3.10;1.90;;;;;;;10.04;78.04;95796.55;1587356;90;25906;-82
2022/09/29 01:53:28;;;;;;;3.65;2.20;;;;;;;10.03;78.13;95798.95;1587746;90;26493;-83
2022/09/29 01:56:00;;;;;;;3.47;2.20;;;;;;;10.01;78.25;95799.77;1543431;92;25933;-82
2022/09/29 01:58:44;;;;;;;2.92;2.50;;;;;;;10.02;78.33;95796.01;1503143;94;25842;-82
2022/09/29 02:01:14;;;;;;;2.95;2.65;;;;;;;9.96;78.44;95796.45;1427550;99;27408;-81
2022/09/29 02:04:03;;;;;;;3.22;2.75;;;;;;;9.96;78.68;95792.94;1428594;99;25788;-81
2022/09/29 02:06:39;;;;;;;3.30;2.70;;;;;;;9.96;78.72;95795.63;1442055;99;25958;-80
2022/09/29 02:09:13;;;;;;;2.83;2.62;;;;;;;9.96;78.84;95791.05;1463387;97;25821;-80
2022/09/29 02:11:42;;;;;;;3.08;2.60;;;;;;;9.98;78.92;95786.77;1468396;97;25846;-80
2022/09/29 02:14:21;;;;;;;3.30;2.60;;;;;;;9.94;78.96;95788.31;1473155;96;27520;-80
2022/09/29 02:17:02;;;;;;;2.92;2.60;;;;;;;9.96;78.98;95798.33;1477033;96;25856;-80
2022/09/29 02:19:33;;;;;;;3.55;2.70;;;;;;;9.97;78.99;95809.39;1414005;101;26764;-80
2022/09/29 02:22:00;;;;;;;4.17;3.00;;;;;;;9.97;78.79;95816.95;1425849;97;25896;-79
2022/09/29 02:24:26;;;;;;;5.78;3.00;;;;;;;10.00;78.81;95821.04;1466820;97;25840;-80
2022/09/29 02:26:53;;;;;;;8.13;3.62;;;;;;;10.00;78.81;95817.00;1466734;96;27372;-80
2022/09/29 02:29:20;;;;;;;4.65;3.37;;;;;;;10.03;78.81;95822.69;1466491;97;25753;-81
2022/09/29 02:31:48;;;;;;;4.35;3.45;;;;;;;10.04;78.81;95820.81;1466742;96;25789;-80
2022/09/29 02:34:18;;;;;;;5.67;3.72;;;;;;;10.04;78.75;95822.16;1466809;97;25841;-82
2022/09/29 02:37:02;;;;;;;3.87;2.98;;;;;;;10.01;78.68;95813.24;1466728;96;25883;-81
2022/09/29 02:39:59;;;;;;;4.62;3.00;;;;;;;10.02;78.61;95813.53;1536763;91;27479;-81
2022/09/29 02:42:50;;;;;;;5.67;3.40;;;;;;;10.03;78.52;95819.17;1493145;96;25920;-82
2022/09/29 02:46:00;;;;;;;3.20;2.47;;;;;;;9.99;78.44;95814.83;1524933;93;25779;-83
2022/09/29 02:49:13;;;;;;;5.17;2.55;;;;;;;9.97;78.38;95807.52;1529916;93;25869;-80
2022/09/29 02:51:45;;;;;;;3.95;2.58;;;;;;;9.97;78.42;95816.13;1507044;92;25855;-80
2022/09/29 02:54:36;;;;;;;4.78;2.98;;;;;;;9.95;78.43;95818.25;1472470;97;28321;-79
2022/09/29 02:57:16;;;;;;;4.25;2.98;;;;;;;9.95;78.41;95822.30;1474647;96;25990;-79
2022/09/29 02:59:57;;;;;;;3.47;2.67;;;;;;;9.94;78.37;95816.62;1452566;98;25387;-79
2022/09/29 03:02:27;;;;;;;3.25;2.52;;;;;;;9.94;78.28;95809.34;1452248;95;25895;-78
2022/09/29 03:04:54;;;;;;;4.28;2.92;;;;;;;9.90;78.22;95807.41;1474890;97;25883;-79
2022/09/29 03:07:21;;;;;;;5.08;2.92;;;;;;;9.85;78.25;95808.66;1474771;97;27525;-78
2022/09/29 03:09:48;;;;;;;5.40;2.90;;;;;;;9.84;78.31;95812.42;1474883;97;25928;-80
2022/09/29 03:12:16;;;;;;;3.70;2.80;;;;;;;9.84;78.36;95819.16;1474941;95;25867;-79
2022/09/29 03:14:43;;;;;;;5.20;2.62;;;;;;;9.80;78.45;95818.00;1474952;97;26570;-80
2022/09/29 03:17:09;;;;;;;3.33;3.00;;;;;;;9.81;78.37;95818.29;1493561;95;25933;-79
2022/09/29 03:19:36;;;;;;;3.83;3.02;;;;;;;9.80;78.36;95818.81;1499280;94;27447;-78
2022/09/29 03:22:02;;;;;;;3.83;3.25;;;;;;;9.81;78.38;95818.29;1499125;95;25841;-79
2022/09/29 03:24:30;;;;;;;3.50;3.17;;;;;;;9.82;78.41;95813.19;1499244;95;25824;-79
2022/09/29 03:26:57;;;;;;;3.37;3.00;;;;;;;9.82;78.36;95820.74;1499260;94;25877;-79
2022/09/29 03:29:23;;;;;;;6.37;3.58;;;;;;;9.81;78.42;95822.33;1516055;94;25845;-79
2022/09/29 03:31:50;;;;;;;3.50;3.20;;;;;;;9.78;78.41;95810.72;1523404;94;27448;-80
2022/09/29 03:34:17;;;;;;;4.33;3.60;;;;;;;9.77;78.44;95808.55;1523599;94;25901;-78
2022/09/29 03:36:43;;;;;;;4.60;3.85;;;;;;;9.77;78.51;95815.82;1549795;89;25899;-79
2022/09/29 03:39:10;;;;;;;5.08;3.45;;;;;;;9.73;78.54;95814.95;1675819;84;25664;-79
2022/09/29 03:41:37;;;;;;;4.15;3.30;;;;;;;9.71;78.66;95819.77;1677425;85;25683;-78
2022/09/29 03:44:03;;;;;;;4.55;3.52;;;;;;;9.65;78.69;95819.41;1677189;84;27536;-79
2022/09/29 03:46:30;;;;;;;8.85;4.20;;;;;;;9.62;78.78;95811.80;1677166;84;25757;-79
2022/09/29 03:48:56;;;;;;;5.58;3.65;;;;;;;9.61;78.82;95814.21;1677182;84;26537;-78
2022/09/29 03:51:23;;;;;;;4.33;3.92;;;;;;;9.62;78.92;95818.54;1748349;78;26654;-78
2022/09/29 03:53:49;;;;;;;4.35;3.70;;;;;;;9.64;78.95;95812.91;1795387;79;25425;-78
2022/09/29 03:56:16;;;;;;;4.22;3.80;;;;;;;9.65;79.04;95818.06;1795039;79;28290;-79
2022/09/29 03:58:43;;;;;;;4.80;3.72;;;;;;;9.65;78.97;95814.02;1795180;79;25671;-78
2022/09/29 04:01:09;;;;;;;5.35;3.83;;;;;;;9.63;79.03;95816.14;1795330;78;25260;-79
2022/09/29 04:03:36;;;;;;;6.50;4.10;;;;;;;9.65;79.11;95815.89;1795332;79;26405;-78
2022/09/29 04:06:03;;;;;;;4.97;4.25;;;;;;;9.66;79.15;95820.23;1795098;79;25243;-78
2022/09/29 04:08:29;;;;;;;5.28;4.17;;;;;;;9.67;79.24;95824.00;1795407;79;28181;-79
2022/09/29 04:10:56;;;;;;;4.45;4.05;;;;;;;9.68;79.20;95820.25;1794979;79;25730;-78
2022/09/29 04:13:22;;;;;;;4.37;3.98;;;;;;;9.68;79.24;95820.77;1795485;79;25668;-79
2022/09/29 04:15:49;;;;;;;5.37;4.20;;;;;;;9.70;79.24;95815.97;1796470;79;25767;-80
2022/09/29 04:18:16;;;;;;;5.33;4.12;;;;;;;9.72;79.27;95819.23;1797354;78;26026;-80
2022/09/29 04:20:43;;;;;;;6.85;4.05;;;;;;;9.71;79.27;95815.72;1797530;79;28442;-79
2022/09/29 04:23:09;;;;;;;5.10;4.65;;;;;;;9.71;79.29;95818.41;1797472;79;25763;-79
2022/09/29 04:25:36;;;;;;;5.87;4.92;;;;;;;9.73;79.31;95819.52;1797403;79;25738;-80
2022/09/29 04:28:02;;;;;;;9.18;5.50;;;;;;;9.73;79.31;95821.69;1797502;79;26435;-79
2022/09/29 04:30:29;;;;;;;7.70;6.25;;;;;;;9.74;79.37;95811.73;1797679;79;25857;-80
2022/09/29 04:32:55;;;;;;;6.97;6.03;;;;;;;9.72;79.46;95816.02;1797259;79;27415;-80
2022/09/29 04:35:22;;;;;;;8.23;5.72;;;;;;;9.72;79.50;95824.63;1797124;79;25869;-81
2022/09/29 04:37:49;;;;;;;8.40;6.17;;;;;;;9.69;79.52;95812.45;1797464;79;25717;-80
2022/09/29 04:40:16;;;;;;;7.83;5.80;;;;;;;9.68;79.50;95809.47;1797544;79;26466;-81
2022/09/29 04:42:42;;;;;;;12.58;6.55;;;;;;;9.69;79.54;95820.53;1797496;78;25663;-82
2022/09/29 04:45:10;;;;;;;7.33;6.17;;;;;;;9.72;79.59;95825.97;1797618;79;27212;-82
2022/09/29 04:47:36;;;;;;;9.90;6.53;;;;;;;9.72;79.59;95822.75;1797449;78;25690;-82
2022/09/29 04:50:04;;;;;;;10.72;6.78;;;;;;;9.72;79.62;95830.83;1797317;79;25702;-82
2022/09/29 04:52:30;;;;;;;8.20;6.62;;;;;;;9.71;79.59;95827.84;1797477;79;25743;-81
2022/09/29 04:54:57;;;;;;;9.23;6.55;;;;;;;9.72;79.63;95832.18;1797562;78;25739;-80
2022/09/29 04:57:23;;;;;;;9.43;7.00;;;;;;;9.72;79.69;95828.14;1797499;79;27602;-80
2022/09/29 04:59:50;;;;;;;9.10;7.35;;;;;;;9.69;79.77;95829.96;1797443;79;25872;-83
2022/09/29 05:02:18;;;;;;;10.20;7.22;;;;;;;9.70;79.80;95830.78;1797651;79;25673;-82
2022/09/29 05:04:46;;;;;;;9.20;7.15;;;;;;;9.70;79.84;95833.48;1797542;79;25710;-82
2022/09/29 05:07:14;;;;;;;10.23;7.17;;;;;;;9.70;79.84;95836.98;1797283;79;25915;-83
2022/09/29 05:09:41;;;;;;;10.70;7.80;;;;;;;9.71;79.82;95839.97;1797681;79;27095;-83
2022/09/29 05:12:08;;;;;;;8.53;6.60;;;;;;;9.70;79.76;95843.72;1797236;79;25720;-81
2022/09/29 05:14:34;;;;;;;8.58;6.72;;;;;;;9.69;79.72;95835.35;1797408;79;25709;-82
2022/09/29 05:17:01;;;;;;;6.50;5.80;;;;;;;9.69;79.65;95841.27;1794589;79;25741;-82
2022/09/29 05:19:28;;;;;;;9.05;5.97;;;;;;;9.68;79.70;95844.49;1794806;79;25844;-82
2022/09/29 05:21:55;;;;;;;7.95;5.70;;;;;;;9.68;79.68;95842.33;1794423;78;28252;-81
2022/09/29 05:24:21;;;;;;;6.67;5.75;;;;;;;9.69;79.72;95843.97;1794685;79;25688;-82
2022/09/29 05:26:48;;;;;;;8.23;6.35;;;;;;;9.68;79.75;95844.49;1794859;79;25717;-81
2022/09/29 05:29:15;;;;;;;9.25;6.20;;;;;;;9.70;79.73;95851.80;1794740;79;25749;-83
2022/09/29 05:31:42;;;;;;;7.85;6.75;;;;;;;9.68;79.79;95845.84;1794627;79;25759;-81
2022/09/29 05:34:09;;;;;;;8.85;6.30;;;;;;;9.67;79.88;95846.90;1794733;79;27347;-81
2022/09/29 05:36:36;;;;;;;7.37;5.60;;;;;;;9.67;79.89;95850.94;1794729;78;25743;-81
2022/09/29 05:39:03;;;;;;;7.72;5.75;;;;;;;9.65;79.91;95853.08;1794420;79;25733;-82
2022/09/29 05:41:30;;;;;;;7.87;5.17;;;;;;;9.67;80.04;95853.63;1794848;79;25673;-83
2022/09/29 05:43:58;;;;;;;7.78;5.70;;;;;;;9.69;79.99;95854.21;1794945;79;25450;-81
2022/09/29 05:46:24;;;;;;;6.25;5.17;;;;;;;9.72;79.87;95856.42;1794777;79;27366;-81
2022/09/29 05:48:51;;;;;;;5.95;4.65;;;;;;;9.70;79.87;95855.03;1794617;79;25673;-81
2022/09/29 05:51:22;;;;;;;6.30;5.60;;;;;;;9.70;79.94;95850.98;1794774;78;25726;-82
2022/09/29 05:53:50;;;;;;;8.05;6.22;;;;;;;9.69;80.05;95844.78;1794649;79;25813;-83
2022/09/29 05:56:21;;;;;;;7.60;6.87;;;;;;;9.69;80.14;95846.13;1794793;79;25235;-82
2022/09/29 05:58:48;;;;;;;8.20;6.80;;;;;;;9.71;80.11;95854.79;1746216;81;28172;-82
2022/09/29 06:01:20;;;;;;;9.55;7.05;;;;;;;9.73;80.08;95855.37;1745669;81;26462;-81
2022/09/29 06:03:47;;;;;;;9.10;6.75;;;;;;;9.72;80.09;95852.39;1719758;83;25825;-82
2022/09/29 06:06:17;;;;;;;8.88;6.67;;;;;;;9.72;80.07;95849.69;1685438;85;25832;-81
2022/09/29 06:08:46;;;;;;;8.90;7.10;;;;;;;9.73;80.17;95855.37;1685302;85;25995;-81
2022/09/29 06:11:20;;;;;;;7.75;6.37;;;;;;;9.72;80.32;95853.73;1685390;85;27049;-80
2022/09/29 06:13:49;;;;;;;14.00;7.80;;;;;;;9.73;80.30;95850.52;1637363;87;25859;-80
2022/09/29 06:16:19;;;;;;;8.95;7.78;;;;;;;9.69;80.13;95848.82;1608678;88;25424;-80
2022/09/29 06:18:47;;;;;;;13.55;8.73;;;;;;;9.73;80.27;95849.16;1618313;87;25835;-80
2022/09/29 06:21:22;;;;;;;11.20;8.38;;;;;;;9.78;80.28;95847.88;1635568;87;25551;-79
2022/09/29 06:23:50;;;;;;;9.83;8.58;;;;;;;9.80;80.24;95849.81;1609223;88;27470;-79
2022/09/29 06:26:19;;;;;;;12.18;10.28;;;;;;;9.84;80.16;95857.70;1609232;88;25862;-80
2022/09/29 06:28:47;;;;;;;13.72;11.93;;;;;;;9.87;80.13;95857.75;1609331;89;25793;-80
2022/09/29 06:31:18;;;;;;;16.67;12.25;;;;;;;9.89;80.12;95856.45;1609304;89;25955;-80
2022/09/29 06:33:46;;;;;;;14.27;11.40;;;;;;;9.88;80.11;95849.95;1609797;89;25790;-80
2022/09/29 06:39:12;;;;;;;12.20;9.13;;;;;;;9.82;80.28;95850.91;1550162;91;25698;-79
2022/09/29 06:41:40;;;;;;;10.93;9.78;;;;;;;9.82;80.35;95850.39;1550532;91;25841;-79
2022/09/29 06:44:07;;;;;;;10.98;9.63;;;;;;;9.84;80.35;95856.89;1550614;91;25846;-79
2022/09/29 06:46:34;;;;;;;8.75;7.10;;;;;;;9.85;80.44;95856.64;1550250;91;25821;-79
2022/09/29 06:49:01;;;;;;;8.03;6.60;;;;;;;9.88;80.28;95858.04;1550605;92;27656;-79
2022/09/29 06:51:27;;;;;;;7.35;6.17;;;;;;;9.86;80.02;95857.46;1550511;91;25808;-79
2022/09/29 06:53:54;;;;;;;8.58;5.80;;;;;;;9.85;80.02;95859.87;1550034;91;25931;-79
2022/09/29 06:56:21;;;;;;;8.35;6.97;;;;;;;9.83;79.91;95858.77;1563281;91;25762;-80
2022/09/29 06:58:47;;;;;;;6.92;5.20;;;;;;;9.82;80.12;95859.82;1567458;91;25847;-78
2022/09/29 07:01:14;;;;;;;7.60;5.90;;;;;;;9.83;80.25;95863.33;1601946;88;27450;-79
2022/09/29 07:03:41;;;;;;;8.10;7.30;;;;;;;9.85;80.32;95863.37;1613966;88;25612;-78
2022/09/29 07:06:10;;;;;;;8.30;6.87;;;;;;;9.89;80.18;95869.11;1613658;88;25849;-78
2022/09/29 07:08:38;;;;;;;8.73;5.72;;;;;;;9.90;80.13;95864.80;1614019;88;25745;-78
2022/09/29 07:11:08;;;;;;;5.05;3.92;;;;;;;9.93;80.31;95879.14;1603101;88;26693;-78
2022/09/29 07:13:36;;;;;;;5.08;3.95;;;;;;;9.97;80.17;95880.30;1638554;87;27611;-78
2022/09/29 07:16:08;;;;;;;7.70;4.28;;;;;;;10.01;80.10;95887.38;1620509;88;25841;-78
2022/09/29 07:18:39;;;;;;;6.35;5.50;;;;;;;10.04;79.97;95882.29;1606975;89;25971;-78
2022/09/29 07:21:08;;;;;;;11.10;6.83;;;;;;;10.02;80.05;95882.27;1625726;87;25751;-79
2022/09/29 07:23:37;;;;;;;10.03;6.75;;;;;;;9.99;80.09;95889.48;1633290;87;25819;-79
2022/09/29 07:26:07;;;;;;;9.58;7.20;;;;;;;9.98;80.11;95887.33;1633355;87;26843;-78
2022/09/29 07:28:35;;;;;;;9.40;6.72;;;;;;;10.02;80.11;95878.23;1632953;87;25770;-79
2022/09/29 07:31:15;;;;;;;8.33;7.12;;;;;;;10.00;80.21;95877.13;1632985;87;25415;-79
2022/09/29 07:33:47;;;;;;;7.70;6.53;;;;;;;10.00;80.42;95879.00;1633437;87;25758;-78
2022/09/29 07:36:16;;;;;;;10.90;6.47;;;;;;;10.00;80.45;95883.04;1664946;85;25898;-79
2022/09/29 07:38:46;;;;;;;8.68;5.78;;;;;;;10.00;80.27;95883.04;1678656;84;27399;-78
2022/09/29 07:41:13;;;;;;;8.38;5.22;;;;;;;10.02;80.21;95891.70;1681721;83;25363;-78
2022/09/29 07:43:39;;;;;;;8.95;6.40;;;;;;;10.06;80.25;95899.57;1712545;83;25784;-79
2022/09/29 07:46:08;;;;;;;7.78;6.10;;;;;;;10.10;80.17;95900.73;1711869;83;26674;-78
2022/09/29 07:48:35;;;;;;;10.15;6.87;;;;;;;10.14;80.06;95901.88;1711969;83;25724;-78
2022/09/29 07:51:12;;;;;;;14.43;10.82;;;;;;;10.19;79.96;95903.86;1712143;83;27464;-78
2022/09/29 07:53:39;;;;;;;22.50;14.83;;;;;;;10.21;79.87;95913.88;1711879;83;25824;-77
2022/09/29 07:56:13;;;;;;;11.60;7.97;;;;;;;10.20;79.79;95911.70;1712123;83;25722;-78
2022/09/29 07:58:41;;;;;;;8.63;7.17;;;;;;;10.20;79.61;95915.75;1657341;86;25873;-78
2022/09/29 08:01:11;;;;;;;9.50;6.95;;;;;;;10.22;79.65;95916.33;1657394;86;25815;-77
2022/09/29 08:03:40;;;;;;;8.93;6.30;;;;;;;10.25;79.64;95923.94;1657488;86;27393;-78
2022/09/29 08:06:08;;;;;;;8.70;6.22;;;;;;;10.28;79.66;95926.12;1657252;86;25914;-78
2022/09/29 08:08:37;;;;;;;8.33;6.40;;;;;;;10.29;79.80;95926.41;1657399;86;25814;-78
2022/09/29 08:11:08;;;;;;;10.82;7.37;;;;;;;10.27;79.84;95930.41;1631346;86;25926;-77
2022/09/29 08:13:36;;;;;;;16.42;7.90;;;;;;;10.26;79.85;95926.10;1631924;87;25899;-77
2022/09/29 08:16:06;;;;;;;14.38;7.75;;;;;;;10.28;79.93;95924.77;1634908;86;28049;-78
2022/09/29 08:18:34;;;;;;;7.70;5.45;;;;;;;10.28;79.93;95926.12;1660101;85;26580;-78
2022/09/29 08:21:03;;;;;;;8.28;6.30;;;;;;;10.29;80.03;95926.41;1660134;86;25794;-78
2022/09/29 08:23:37;;;;;;;9.68;6.70;;;;;;;10.31;80.12;95928.33;1671521;84;26380;-78
2022/09/29 08:26:14;;;;;;;10.23;7.10;;;;;;;10.33;80.04;95930.26;1685685;84;25571;-77
2022/09/29 08:28:42;;;;;;;8.43;6.80;;;;;;;10.35;80.03;95929.48;1687996;84;27495;-78
2022/09/29 08:31:19;;;;;;;8.25;6.67;;;;;;;10.38;80.11;95926.84;1688162;84;25769;-78
2022/09/29 08:33:48;;;;;;;8.60;6.17;;;;;;;10.40;80.21;95921.45;1688194;84;25818;-78
2022/09/29 08:36:16;;;;;;;7.55;5.58;;;;;;;10.43;80.29;95923.67;1712146;82;25817;-78
2022/09/29 08:38:44;;;;;;;6.58;5.55;;;;;;;10.49;80.18;95935.91;1730310;82;25762;-78
2022/09/29 08:41:23;;;;;;;6.78;6.08;;;;;;;10.52;80.05;95935.39;1730304;82;27381;-77
2022/09/29 08:43:56;;;;;;;10.20;7.15;;;;;;;10.54;80.00;95935.43;1730394;82;25659;-77
2022/09/29 08:46:39;;;;;;;8.15;5.67;;;;;;;10.59;79.91;95934.70;1730370;82;25927;-77
2022/09/29 08:49:17;;;;;;;7.80;5.30;;;;;;;10.62;79.87;95942.31;1696355;84;26727;-78
2022/09/29 08:51:48;;;;;;;8.00;6.05;;;;;;;10.67;79.84;95939.67;1667052;85;25880;-78
2022/09/29 08:54:20;;;;;;;9.20;5.67;;;;;;;10.69;79.51;95945.64;1643081;86;28216;-78
2022/09/29 08:56:47;;;;;;;8.85;5.65;;;;;;;10.69;79.51;95945.11;1603414;89;26765;-77
2022/09/29 08:59:14;;;;;;;9.73;6.53;;;;;;;10.72;79.61;95944.63;1603286;89;25683;-78
2022/09/29 09:02:29;;;;;;;8.48;6.40;;;;;;;10.73;79.71;95948.96;1603566;89;25864;-78
2022/09/29 09:05:19;;;;;;;7.05;5.40;;;;;;;10.75;79.70;95947.34;1576713;90;25347;-80
2022/09/29 09:08:03;;;;;;;5.85;5.25;;;;;;;10.68;79.91;95941.31;1570338;90;27418;-79
2022/09/29 09:10:46;;;;;;;4.30;3.90;;;;;;;10.63;79.92;95945.27;1611969;88;25852;-79
2022/09/29 09:13:30;;;;;;;5.42;3.90;;;;;;;10.60;79.97;95952.53;1612336;88;25326;-80
2022/09/29 09:16:08;;;;;;;6.12;4.42;;;;;;;10.58;79.88;95960.05;1612512;88;26563;-79
2022/09/29 09:18:41;;;;;;;5.67;4.37;;;;;;;10.61;79.86;95952.81;1582197;89;25728;-79
2022/09/29 09:21:13;;;;;;;7.95;4.90;;;;;;;10.65;79.91;95959.34;1573674;90;26856;-79
2022/09/29 09:23:59;;;;;;;8.40;5.42;;;;;;;10.66;79.95;95953.70;1495817;94;25846;-79
2022/09/29 09:26:36;;;;;;;13.68;7.75;;;;;;;10.62;79.60;95951.75;1498537;95;25913;-79
2022/09/29 09:29:31;;;;;;;17.95;8.90;;;;;;;10.62;79.73;95951.23;1499487;95;25883;-79
2022/09/29 09:32:06;;;;;;;14.55;7.97;;;;;;;10.67;79.85;95956.69;1499969;95;25869;-80
2022/09/29 09:35:02;;;;;;;14.00;8.75;;;;;;;10.75;79.80;95960.83;1501607;95;28090;-79
2022/09/29 09:37:38;;;;;;;13.88;7.87;;;;;;;10.80;79.77;95955.52;1436016;99;25879;-78
2022/09/29 09:40:24;;;;;;;11.88;7.17;;;;;;;10.85;79.76;95956.96;1435813;99;25902;-79
2022/09/29 09:43:01;;;;;;;14.75;7.53;;;;;;;10.88;79.85;95952.39;1411502;101;26045;-79
2022/09/29 09:45:32;;;;;;;7.22;6.05;;;;;;;10.94;79.84;95950.06;1411633;100;25881;-80
2022/09/29 09:48:05;;;;;;;8.23;5.25;;;;;;;11.02;79.86;95949.62;1411662;101;27631;-79
2022/09/29 09:55:03;;;;;;;6.45;5.03;;;;;;;11.07;79.87;95953.76;1355780;102;26776;-80
2022/09/29 09:58:04;;;;;;;7.17;5.08;;;;;;;11.12;79.94;95953.81;1381946;102;25915;-79
2022/09/29 10:00:55;;;;;;;4.70;4.20;;;;;;;11.18;79.83;95951.47;1380573;102;26598;-79
2022/09/29 10:03:22;;;;;;;4.50;3.50;;;;;;;11.28;79.89;95948.61;1377460;102;27169;-79
2022/09/29 10:05:49;;;;;;;7.12;3.60;;;;;;;11.43;79.63;95947.45;1387996;103;25949;-79
2022/09/29 10:08:26;;;;;;;6.35;3.37;;;;;;;11.52;79.50;95932.42;1387767;102;25909;-79
2022/09/29 10:10:54;;;;;;;4.67;3.58;;;;;;;11.55;79.55;95930.58;1387803;103;26039;-79
2022/09/29 10:13:26;;;;;;;6.62;3.42;;;;;;;11.60;79.90;95936.02;1388094;101;25897;-79
2022/09/29 10:16:07;;;;;;;4.12;3.42;;;;;;;11.65;79.62;95950.14;1425661;99;27467;-79
2022/09/29 10:18:51;;;;;;;6.15;3.15;;;;;;;11.70;79.45;95945.63;1351490;103;25917;-79
2022/09/29 10:21:41;;;;;;;5.53;3.95;;;;;;;11.75;79.20;95942.14;1391968;102;25988;-79
2022/09/29 10:24:26;;;;;;;6.90;4.42;;;;;;;11.79;79.08;95941.42;1406127;100;26528;-80
2022/09/29 10:26:57;;;;;;;4.17;3.72;;;;;;;11.84;78.95;95933.34;1407833;100;25969;-79
2022/09/29 10:29:34;;;;;;;3.72;3.10;;;;;;;11.87;78.67;95926.08;1472563;97;27438;-78
2022/09/29 10:32:35;;;;;;;2.98;1.92;;;;;;;11.90;78.47;95924.23;1511812;93;25846;-78
2022/09/29 10:35:20;;;;;;;3.02;1.65;;;;;;;11.92;78.15;95919.92;1467960;97;25876;-78
2022/09/29 10:38:00;;;;;;;5.37;2.00;;;;;;;11.96;77.98;95922.91;1409145;99;25996;-79
2022/09/29 10:40:26;;;;;;;3.27;2.05;;;;;;;12.01;77.80;95922.97;1436620;99;25862;-78
2022/09/29 10:42:55;;;;;;;4.58;2.35;;;;;;;12.05;77.93;95926.80;1447925;97;27486;-79
2022/09/29 10:45:31;;;;;;;1.70;1.50;;;;;;;12.06;77.67;95929.25;1447806;98;25958;-78
2022/09/29 10:48:04;;;;;;;2.70;1.60;;;;;;;12.07;77.54;95938.19;1433024;100;25873;-78
2022/09/29 10:50:38;;;;;;;3.20;2.40;;;;;;;12.07;77.40;95943.59;1451782;97;25888;-79
2022/09/29 10:53:10;;;;;;;8.83;4.35;;;;;;;12.10;77.37;95945.77;1462551;98;25967;-79
2022/09/29 10:55:47;;;;;;;6.08;3.90;;;;;;;12.11;77.55;95956.33;1400954;100;27448;-78
2022/09/29 10:58:34;;;;;;;6.10;3.55;;;;;;;12.12;77.42;95962.56;1427540;99;25831;-77
2022/09/29 11:01:10;;;;;;;3.52;2.12;;;;;;;12.10;76.95;95961.99;1427571;100;25913;-78
2022/09/29 11:04:03;;;;;;;2.72;1.70;;;;;;;12.06;77.01;95960.89;1427509;100;26542;-78
2022/09/29 11:06:36;;;;;;;2.77;1.30;;;;;;;12.04;76.91;95967.09;1423330;100;33021;-79
2022/09/29 11:09:16;;;;;;;3.22;1.20;;;;;;;12.02;76.71;95960.58;1422044;100;28116;-78
2022/09/29 11:11:54;;;;;;;1.30;1.00;;;;;;;11.99;76.40;95962.97;1453672;96;25897;-79
2022/09/29 11:14:34;;;;;;;2.67;1.00;;;;;;;11.93;76.52;95970.77;1490424;95;25925;-78
2022/09/29 11:17:21;;;;;;;2.10;1.00;;;;;;;11.88;76.79;95973.68;1489468;96;25916;-79
2022/09/29 11:19:49;;;;;;;1.30;0.90;;;;;;;11.87;76.74;95980.16;1483317;96;26071;-78
2022/09/29 11:22:47;;;;;;;4.55;1.10;;;;;;;11.90;76.50;95988.30;1483149;96;27469;-79
2022/09/29 11:25:31;;;;;;;2.67;1.30;;;;;;;11.91;76.38;95998.05;1483098;96;25756;-78
2022/09/29 11:28:06;;;;;;;3.55;1.60;;;;;;;11.89;76.11;96004.24;1483418;96;25849;-79
2022/09/29 11:30:57;;;;;;;4.55;2.10;;;;;;;11.87;76.04;96003.67;1480782;96;26458;-78
2022/09/29 11:33:57;;;;;;;5.50;1.92;;;;;;;11.85;75.87;96001.75;1473925;93;26061;-78
2022/09/29 11:36:44;;;;;;;4.17;2.10;;;;;;;11.82;75.72;96011.21;1529978;93;27405;-79
2022/09/29 11:39:47;;;;;;;3.62;1.95;;;;;;;11.79;75.77;96011.70;1505323;94;25560;-78
2022/09/29 11:42:39;;;;;;;4.33;2.30;;;;;;;11.75;75.84;96009.22;1470645;97;32469;-77
2022/09/29 11:45:13;;;;;;;4.05;2.65;;;;;;;11.68;76.15;96005.87;1450129;98;35310;-77
2022/09/29 11:47:49;;;;;;;6.00;2.60;;;;;;;11.61;76.60;96006.58;1442815;98;25863;-77
2022/09/29 11:50:39;;;;;;;4.20;2.62;;;;;;;11.57;76.92;96006.00;1452088;98;28274;-77
2022/09/29 11:53:41;;;;;;;5.05;2.62;;;;;;;11.56;77.08;96007.87;1466809;97;26019;-78
2022/09/29 11:56:31;;;;;;;4.57;2.10;;;;;;;11.53;77.06;96007.84;1470877;97;25349;-77
2022/09/29 11:59:09;;;;;;;4.22;2.05;;;;;;;11.50;76.92;96003.47;1495435;95;25988;-77
2022/09/29 12:01:47;;;;;;;5.20;1.85;;;;;;;11.42;77.36;96007.44;1495736;95;25930;-77
2022/09/29 12:04:41;;;;;;;4.28;1.67;;;;;;;11.42;77.25;96013.37;1495476;95;28260;-78
2022/09/29 12:07:32;;;;;;;3.87;1.87;;;;;;;11.45;76.93;96015.58;1498396;94;25956;-78
2022/09/29 12:10:28;;;;;;;3.62;2.60;;;;;;;11.43;76.85;96010.95;1497134;94;25391;-79